createdAt,value
2022-10-25T00:01:37.139Z,16.00
2022-10-25T00:04:09.613Z,15.90
2022-10-25T00:06:41.993Z,17.30
2022-10-25T00:09:15.504Z,17.70
2022-10-25T00:11:47.730Z,19.70
2022-10-25T00:14:20.782Z,19.10
2022-10-25T00:16:53.013Z,19.00
2022-10-25T00:19:25.153Z,17.80
2022-10-25T00:22:17.286Z,19.90
2022-10-25T00:24:49.605Z,17.30
2022-10-25T00:27:21.759Z,19.10
2022-10-25T00:29:54.978Z,18.20
2022-10-25T00:32:27.345Z,19.50
2022-10-25T00:34:59.500Z,17.00
2022-10-25T00:37:31.699Z,20.20
2022-10-25T00:40:04.260Z,16.60
2022-10-25T00:42:36.514Z,17.90
2022-10-25T00:45:24.051Z,16.60
2022-10-25T00:48:02.004Z,17.60
2022-10-25T00:50:42.728Z,17.80
2022-10-25T00:53:20.009Z,17.80
2022-10-25T00:55:57.365Z,18.40
2022-10-25T00:58:32.804Z,17.30
2022-10-25T01:01:08.461Z,19.00
2022-10-25T01:06:19.256Z,21.80
2022-10-25T01:08:53.233Z,15.70
2022-10-25T01:11:25.501Z,22.10
2022-10-25T01:13:59.040Z,18.60
2022-10-25T01:16:39.910Z,17.10
2022-10-25T01:19:35.338Z,16.00
2022-10-25T01:22:11.197Z,18.60
2022-10-25T01:27:58.749Z,17.80
2022-10-25T01:30:49.847Z,16.60
2022-10-25T01:33:26.812Z,18.90
2022-10-25T01:36:06.429Z,17.30
2022-10-25T01:38:48.167Z,17.60
2022-10-25T01:41:29.555Z,17.30
2022-10-25T01:44:11.344Z,18.10
2022-10-25T01:46:53.137Z,17.20
2022-10-25T01:49:30.100Z,17.30
2022-10-25T01:52:03.190Z,22.70
2022-10-25T01:54:35.518Z,15.40
2022-10-25T01:57:31.106Z,18.90
2022-10-25T02:00:11.435Z,19.80
2022-10-25T02:02:58.675Z,18.20
2022-10-25T02:05:37.069Z,19.40
2022-10-25T02:08:20.214Z,16.70
2022-10-25T02:11:02.674Z,17.90
2022-10-25T02:13:40.461Z,18.50
2022-10-25T02:16:15.202Z,18.60
2022-10-25T02:18:50.790Z,16.70
2022-10-25T02:21:25.550Z,19.00
2022-10-25T02:23:59.548Z,17.00
2022-10-25T02:26:32.429Z,16.90
2022-10-25T02:29:08.384Z,18.70
2022-10-25T02:31:40.910Z,16.10
2022-10-25T02:34:13.174Z,19.80
2022-10-25T02:36:49.075Z,22.00
2022-10-25T02:39:26.418Z,18.70
2022-10-25T02:42:02.647Z,20.90
2022-10-25T02:44:35.001Z,17.80
2022-10-25T02:47:07.187Z,20.20
2022-10-25T02:49:39.908Z,21.40
2022-10-25T02:52:12.054Z,17.20
2022-10-25T02:54:44.225Z,19.90
2022-10-25T02:57:16.373Z,21.10
2022-10-25T02:59:48.629Z,19.30
2022-10-25T03:02:20.814Z,18.70
2022-10-25T03:04:53.076Z,18.00
2022-10-25T03:07:25.693Z,19.30
2022-10-25T03:09:57.820Z,21.30
2022-10-25T03:12:29.922Z,18.50
2022-10-25T03:15:02.013Z,19.00
2022-10-25T03:17:34.125Z,17.90
2022-10-25T03:20:07.345Z,16.80
2022-10-25T03:22:39.639Z,18.60
2022-10-25T03:25:12.412Z,17.50
2022-10-25T03:27:44.807Z,21.70
2022-10-25T03:30:18.068Z,18.20
2022-10-25T03:32:50.190Z,19.50
2022-10-25T03:35:22.473Z,18.40
2022-10-25T03:37:55.937Z,18.60
2022-10-25T03:40:28.236Z,18.90
2022-10-25T03:43:00.539Z,19.20
2022-10-25T03:45:32.831Z,21.40
2022-10-25T03:48:05.196Z,22.30
2022-10-25T03:50:37.335Z,21.60
2022-10-25T03:53:10.883Z,21.30
2022-10-25T03:55:43.001Z,20.90
2022-10-25T03:58:15.183Z,22.60
2022-10-25T04:00:47.365Z,24.40
2022-10-25T04:03:19.574Z,22.10
2022-10-25T04:05:51.881Z,23.60
2022-10-25T04:08:24.016Z,22.90
2022-10-25T04:10:56.340Z,20.00
2022-10-25T04:13:28.582Z,20.30
2022-10-25T04:16:01.101Z,20.20
2022-10-25T04:18:33.268Z,20.10
2022-10-25T04:21:05.577Z,20.90
2022-10-25T04:23:37.797Z,20.30
2022-10-25T04:26:10.052Z,21.40
2022-10-25T04:28:42.137Z,21.30
2022-10-25T04:31:14.348Z,20.90
2022-10-25T04:33:49.260Z,18.90
2022-10-25T04:36:22.286Z,20.10
2022-10-25T04:38:54.816Z,18.60
2022-10-25T04:41:27.111Z,20.10
2022-10-25T04:43:59.276Z,21.40
2022-10-25T04:46:31.785Z,20.40
2022-10-25T04:49:03.929Z,16.40
2022-10-25T04:51:36.919Z,17.40
2022-10-25T04:54:09.373Z,19.50
2022-10-25T04:56:41.952Z,19.00
2022-10-25T04:59:14.428Z,17.90
2022-10-25T05:01:46.638Z,20.00
2022-10-25T05:04:21.690Z,33.10
2022-10-25T05:06:53.946Z,19.90
2022-10-25T05:09:27.252Z,17.90
2022-10-25T05:11:59.517Z,19.30
2022-10-25T05:14:31.904Z,18.80
2022-10-25T05:17:04.196Z,19.20
2022-10-25T05:19:36.479Z,17.20
2022-10-25T05:22:08.813Z,17.30
2022-10-25T05:24:41.117Z,19.90
2022-10-25T05:27:13.608Z,18.30
2022-10-25T05:29:45.813Z,21.80
2022-10-25T05:32:18.196Z,21.80
2022-10-25T05:34:50.501Z,19.20
2022-10-25T05:37:22.837Z,20.50
2022-10-25T05:39:55.126Z,21.90
2022-10-25T05:42:28.600Z,23.80
2022-10-25T05:45:00.863Z,24.90
2022-10-25T05:47:33.199Z,23.10
2022-10-25T05:50:05.874Z,21.90
2022-10-25T05:52:38.217Z,24.00
2022-10-25T05:55:11.968Z,22.20
2022-10-25T05:57:44.144Z,26.40
2022-10-25T06:00:17.949Z,25.00
2022-10-25T06:02:50.678Z,23.70
2022-10-25T06:05:23.181Z,28.10
2022-10-25T06:07:55.652Z,23.50
2022-10-25T06:10:28.036Z,22.90
2022-10-25T06:13:02.725Z,19.60
2022-10-25T06:15:35.249Z,23.00
2022-10-25T06:18:07.536Z,21.40
2022-10-25T06:23:13.118Z,19.00
2022-10-25T06:25:45.451Z,22.00
2022-10-25T06:28:18.191Z,18.30
2022-10-25T06:30:50.382Z,21.20
2022-10-25T06:33:25.730Z,20.80
2022-10-25T06:36:01.801Z,19.20
2022-10-25T06:38:34.719Z,21.40
2022-10-25T06:41:08.628Z,20.10
2022-10-25T06:43:40.951Z,17.80
2022-10-25T06:46:18.184Z,19.50
2022-10-25T06:48:51.074Z,18.20
2022-10-25T06:51:24.811Z,18.60
2022-10-25T06:54:01.402Z,17.90
2022-10-25T06:56:35.248Z,17.70
2022-10-25T06:59:09.715Z,19.10
2022-10-25T07:01:43.454Z,15.40
2022-10-25T07:04:16.225Z,17.40
2022-10-25T07:06:51.360Z,18.50
2022-10-25T07:09:28.741Z,17.80
2022-10-25T07:12:01.142Z,17.20
2022-10-25T07:14:33.691Z,18.70
2022-10-25T07:17:06.088Z,18.80
2022-10-25T07:19:40.819Z,16.80
2022-10-25T07:22:13.228Z,17.50
2022-10-25T07:24:45.984Z,18.30
2022-10-25T07:27:20.757Z,16.60
2022-10-25T07:29:53.185Z,15.60
2022-10-25T07:32:28.320Z,15.30
2022-10-25T07:35:01.341Z,18.10
2022-10-25T07:37:33.787Z,18.90
2022-10-25T07:40:07.004Z,19.60
2022-10-25T07:42:39.468Z,16.80
2022-10-25T07:45:12.989Z,16.20
2022-10-25T07:47:46.046Z,16.00
2022-10-25T07:50:19.705Z,16.50
2022-10-25T07:52:55.350Z,15.10
2022-10-25T07:55:28.382Z,11.70
2022-10-25T07:58:08.258Z,14.90
2022-10-25T08:00:41.080Z,15.60
2022-10-25T08:03:13.938Z,15.20
2022-10-25T08:05:49.112Z,15.80
2022-10-25T08:08:23.546Z,13.10
2022-10-25T08:10:56.154Z,12.80
2022-10-25T08:13:28.748Z,15.30
2022-10-25T08:16:01.291Z,12.50
2022-10-25T08:18:34.328Z,13.30
2022-10-25T08:21:07.840Z,13.10
2022-10-25T08:23:40.469Z,11.60
2022-10-25T08:26:13.133Z,14.00
2022-10-25T08:28:45.609Z,13.40
2022-10-25T08:31:18.040Z,13.70
2022-10-25T08:33:50.502Z,11.10
2022-10-25T08:36:24.356Z,9.00
2022-10-25T08:38:57.530Z,10.20
2022-10-25T08:41:46.606Z,10.80
2022-10-25T08:44:30.667Z,11.50
2022-10-25T08:47:08.888Z,10.30
2022-10-25T08:49:54.792Z,12.30
2022-10-25T08:55:05.601Z,10.80
2022-10-25T08:57:46.950Z,8.10
2022-10-25T09:00:24.068Z,11.20
2022-10-25T09:03:01.017Z,11.70
2022-10-25T09:05:40.705Z,10.30
2022-10-25T09:08:39.167Z,11.10
2022-10-25T09:11:24.920Z,8.40
2022-10-25T09:14:06.468Z,8.40
2022-10-25T09:16:44.368Z,9.00
2022-10-25T09:19:22.754Z,8.70
2022-10-25T09:21:58.780Z,11.20
2022-10-25T09:24:35.186Z,9.90
2022-10-25T09:27:15.598Z,9.50
2022-10-25T09:29:52.229Z,8.80
2022-10-25T09:32:30.997Z,8.60
2022-10-25T09:35:05.258Z,10.90
2022-10-25T09:37:42.290Z,10.60
2022-10-25T09:40:20.348Z,11.40
2022-10-25T09:42:57.392Z,12.20
2022-10-25T09:45:33.526Z,15.00
2022-10-25T09:48:11.626Z,11.50
2022-10-25T09:50:49.148Z,10.90
2022-10-25T09:53:23.984Z,11.10
2022-10-25T09:58:31.774Z,5.70
2022-10-25T10:01:09.940Z,7.80
2022-10-25T10:03:44.588Z,8.70
2022-10-25T10:06:25.230Z,10.50
2022-10-25T10:09:01.932Z,9.80
2022-10-25T10:11:35.971Z,9.80
2022-10-25T10:14:13.733Z,8.40
2022-10-25T10:16:49.356Z,8.10
2022-10-25T10:19:23.653Z,7.10
2022-10-25T10:21:58.548Z,9.20
2022-10-25T10:24:33.312Z,8.90
2022-10-25T10:27:10.153Z,9.80
2022-10-25T10:30:01.156Z,8.80
2022-10-25T10:32:36.659Z,7.00
2022-10-25T10:35:27.011Z,8.10
2022-10-25T10:38:26.544Z,7.60
2022-10-25T10:41:16.380Z,7.40
2022-10-25T10:43:48.635Z,8.80
2022-10-25T10:46:24.846Z,9.50
2022-10-25T10:48:59.212Z,6.90
2022-10-25T10:51:44.315Z,6.80
2022-10-25T10:54:27.538Z,5.90
2022-10-25T10:57:05.571Z,6.30
2022-10-25T10:59:47.048Z,6.20
2022-10-25T11:02:40.556Z,6.80
2022-10-25T11:05:28.872Z,9.60
2022-10-25T11:08:03.213Z,5.00
2022-10-25T11:10:37.446Z,5.40
2022-10-25T11:13:18.100Z,6.80
2022-10-25T11:16:20.997Z,7.20
2022-10-25T11:19:13.321Z,5.30
2022-10-25T11:22:00.342Z,9.00
2022-10-25T11:24:45.825Z,7.10
2022-10-25T11:27:33.061Z,9.70
2022-10-25T11:30:14.348Z,7.60
2022-10-25T11:33:07.904Z,8.20
2022-10-25T11:35:50.282Z,7.60
2022-10-25T11:38:31.678Z,9.00
2022-10-25T11:41:15.673Z,9.80
2022-10-25T11:44:04.070Z,7.30
2022-10-25T11:46:50.669Z,7.20
2022-10-25T11:49:35.461Z,10.10
2022-10-25T11:52:25.682Z,6.60
2022-10-25T11:55:10.502Z,8.10
2022-10-25T11:57:52.484Z,7.70
2022-10-25T12:00:33.096Z,9.20
2022-10-25T12:03:20.218Z,8.60
2022-10-25T12:06:01.576Z,8.40
2022-10-25T12:08:47.209Z,8.90
2022-10-25T12:11:22.786Z,9.40
2022-10-25T12:13:59.935Z,8.00
2022-10-25T12:16:33.751Z,9.70
2022-10-25T12:19:15.404Z,8.10
2022-10-25T12:21:51.749Z,8.80
2022-10-25T12:24:27.809Z,8.30
2022-10-25T12:27:00.358Z,8.00
2022-10-25T12:29:38.672Z,5.80
2022-10-25T12:32:18.833Z,9.30
2022-10-25T12:34:54.401Z,9.00
2022-10-25T12:37:33.528Z,6.10
2022-10-25T12:40:07.676Z,7.30
2022-10-25T12:42:46.279Z,7.80
2022-10-25T12:45:48.944Z,7.30
2022-10-25T12:48:42.709Z,9.40
2022-10-25T12:51:28.482Z,6.80
2022-10-25T12:54:30.281Z,5.60
2022-10-25T12:57:14.953Z,7.00
2022-10-25T13:00:01.275Z,8.90
2022-10-25T13:03:07.506Z,9.60
2022-10-25T13:06:11.111Z,6.90
2022-10-25T13:08:44.486Z,9.90
2022-10-25T13:11:16.955Z,8.20
2022-10-25T13:13:54.856Z,8.00
2022-10-25T13:16:29.650Z,11.00
2022-10-25T13:19:54.128Z,10.10
2022-10-25T13:22:39.234Z,7.20
2022-10-25T13:25:40.767Z,11.80
2022-10-25T13:28:35.988Z,8.20
2022-10-25T13:31:47.645Z,7.10
2022-10-25T13:34:34.643Z,8.80
2022-10-25T13:37:31.081Z,9.00
2022-10-25T13:40:07.260Z,8.00
2022-10-25T13:42:40.088Z,9.90
2022-10-25T13:45:30.016Z,9.40
2022-10-25T13:48:25.945Z,9.20
2022-10-25T13:51:02.475Z,9.10
2022-10-25T13:53:40.793Z,9.00
2022-10-25T13:56:33.669Z,8.70
2022-10-25T13:59:26.713Z,7.70
2022-10-25T14:02:16.927Z,8.90
2022-10-25T14:04:49.327Z,9.90
2022-10-25T14:07:46.965Z,9.80
2022-10-25T14:10:37.026Z,10.70
2022-10-25T14:13:20.846Z,7.60
2022-10-25T14:15:59.335Z,10.00
2022-10-25T14:18:35.890Z,9.60
2022-10-25T14:21:09.956Z,8.80
2022-10-25T14:23:43.538Z,8.10
2022-10-25T14:26:20.063Z,7.90
2022-10-25T14:28:52.934Z,7.80
2022-10-25T14:31:25.207Z,9.20
2022-10-25T14:33:58.130Z,9.50
2022-10-25T14:36:32.797Z,9.20
2022-10-25T14:39:16.875Z,6.90
2022-10-25T14:41:56.208Z,12.20
2022-10-25T14:44:30.700Z,8.80
2022-10-25T14:47:03.235Z,8.80
2022-10-25T14:49:35.357Z,9.40
2022-10-25T14:52:09.385Z,9.10
2022-10-25T14:54:42.293Z,7.10
2022-10-25T14:57:17.686Z,11.60
2022-10-25T14:59:53.387Z,7.50
2022-10-25T15:02:28.859Z,9.00
2022-10-25T15:05:02.955Z,7.90
2022-10-25T15:07:40.579Z,7.00
2022-10-25T15:10:38.063Z,8.00
2022-10-25T15:13:19.765Z,7.90
2022-10-25T15:15:54.815Z,7.50
2022-10-25T15:18:38.422Z,9.50
2022-10-25T15:21:17.768Z,9.50
2022-10-25T15:24:10.708Z,8.90
2022-10-25T15:26:55.658Z,7.00
2022-10-25T15:32:27.771Z,8.00
2022-10-25T15:35:02.243Z,9.50
2022-10-25T15:37:34.400Z,8.50
2022-10-25T15:40:20.149Z,8.40
2022-10-25T15:42:52.330Z,9.30
2022-10-25T15:45:24.424Z,9.20
2022-10-25T15:47:58.599Z,10.30
2022-10-25T15:50:30.944Z,11.00
2022-10-25T15:53:03.242Z,12.80
2022-10-25T15:55:35.756Z,11.00
2022-10-25T15:58:09.858Z,9.30
2022-10-25T16:00:44.129Z,9.40
2022-10-25T16:03:22.767Z,10.00
2022-10-25T16:05:55.546Z,10.30
2022-10-25T16:08:27.783Z,7.00
2022-10-25T16:11:01.637Z,10.60
2022-10-25T16:13:37.133Z,9.70
2022-10-25T16:16:28.154Z,9.80
2022-10-25T16:19:03.802Z,8.40
2022-10-25T16:21:36.031Z,9.50
2022-10-25T16:24:08.582Z,8.70
2022-10-25T16:26:43.455Z,8.20
2022-10-25T16:29:19.496Z,9.40
2022-10-25T16:31:52.550Z,8.00
2022-10-25T16:34:24.656Z,8.20
2022-10-25T16:36:56.839Z,6.70
2022-10-25T16:39:29.048Z,7.10
2022-10-25T16:42:01.784Z,9.10
2022-10-25T16:44:35.129Z,8.50
2022-10-25T16:47:07.373Z,9.80
2022-10-25T16:49:39.562Z,8.70
2022-10-25T16:52:12.230Z,8.00
2022-10-25T16:54:44.429Z,8.40
2022-10-25T16:57:19.096Z,8.90
2022-10-25T16:59:51.470Z,8.20
2022-10-25T17:02:26.068Z,9.80
2022-10-25T17:04:58.260Z,8.60
2022-10-25T17:07:30.419Z,10.10
2022-10-25T17:10:02.588Z,8.20
2022-10-25T17:12:34.728Z,9.00
2022-10-25T17:15:08.896Z,10.10
2022-10-25T17:17:41.625Z,9.50
2022-10-25T17:20:16.333Z,10.90
2022-10-25T17:22:50.029Z,11.40
2022-10-25T17:25:22.560Z,10.60
2022-10-25T17:27:55.548Z,10.20
2022-10-25T17:30:27.812Z,9.70
2022-10-25T17:32:59.953Z,9.40
2022-10-25T17:35:32.136Z,7.70
2022-10-25T17:38:04.247Z,9.30
2022-10-25T17:40:38.150Z,10.50
2022-10-25T17:43:11.829Z,8.60
2022-10-25T17:45:45.449Z,8.20
2022-10-25T17:48:17.555Z,7.50
2022-10-25T17:50:49.747Z,6.80
2022-10-25T17:53:21.905Z,7.40
2022-10-25T17:55:54.107Z,8.90
2022-10-25T17:58:26.774Z,9.70
2022-10-25T18:01:06.101Z,6.10
2022-10-25T18:03:38.453Z,7.30
2022-10-25T18:06:13.020Z,6.80
2022-10-25T18:08:46.765Z,8.00
2022-10-25T18:11:22.581Z,8.20
2022-10-25T18:13:56.810Z,6.10
2022-10-25T18:16:31.203Z,6.50
2022-10-25T18:19:05.973Z,9.80
2022-10-25T18:21:38.205Z,9.20
2022-10-25T18:24:13.135Z,9.10
2022-10-25T18:26:45.554Z,10.50
2022-10-25T18:29:17.673Z,11.00
2022-10-25T18:35:04.651Z,9.70
2022-10-25T18:37:36.868Z,9.50
2022-10-25T18:40:11.740Z,9.90
2022-10-25T18:42:43.908Z,12.80
2022-10-25T18:45:31.806Z,10.80
2022-10-25T18:48:04.007Z,11.80
2022-10-25T18:50:40.429Z,10.90
2022-10-25T18:53:16.867Z,12.90
2022-10-25T18:55:51.213Z,13.50
2022-10-25T18:58:23.491Z,11.10
2022-10-25T19:00:55.621Z,11.70
2022-10-25T19:03:27.960Z,13.90
2022-10-25T19:06:00.168Z,11.70
2022-10-25T19:08:32.528Z,13.10
2022-10-25T19:11:08.411Z,12.30
2022-10-25T19:13:41.203Z,10.90
2022-10-25T19:16:16.341Z,10.00
2022-10-25T19:18:48.569Z,9.70
2022-10-25T19:21:21.319Z,10.10
2022-10-25T19:23:54.414Z,8.80
2022-10-25T19:26:26.724Z,9.60
2022-10-25T19:29:00.671Z,9.20
2022-10-25T19:31:33.304Z,11.60
2022-10-25T19:34:05.607Z,9.10
2022-10-25T19:36:38.283Z,9.10
2022-10-25T19:39:10.499Z,10.50
2022-10-25T19:41:42.638Z,12.40
2022-10-25T19:44:14.834Z,8.40
2022-10-25T19:46:47.003Z,12.00
2022-10-25T19:49:19.518Z,11.80
2022-10-25T19:51:51.734Z,10.60
2022-10-25T19:54:24.200Z,9.40
2022-10-25T19:56:56.352Z,10.90
2022-10-25T19:59:28.605Z,11.90
2022-10-25T20:02:00.975Z,15.60
2022-10-25T20:04:33.550Z,12.10
2022-10-25T20:07:05.723Z,11.60
2022-10-25T20:09:37.949Z,11.50
2022-10-25T20:12:10.628Z,12.70
2022-10-25T20:14:42.973Z,14.80
2022-10-25T20:17:15.620Z,13.70
2022-10-25T20:19:47.741Z,12.50
2022-10-25T20:22:19.920Z,12.60
2022-10-25T20:24:52.122Z,12.50
2022-10-25T20:27:24.924Z,11.40
2022-10-25T20:29:57.091Z,13.10
2022-10-25T20:32:29.241Z,11.70
2022-10-25T20:35:01.401Z,12.20
2022-10-25T20:37:33.565Z,13.70
2022-10-25T20:40:06.429Z,13.70
2022-10-25T20:42:38.657Z,13.90
2022-10-25T20:45:11.371Z,15.10
2022-10-25T20:47:44.976Z,12.40
2022-10-25T20:50:17.496Z,15.70
2022-10-25T20:53:09.170Z,12.70
2022-10-25T20:55:41.868Z,13.90
2022-10-25T20:58:14.195Z,13.10
2022-10-25T21:00:46.736Z,14.20
2022-10-25T21:03:19.068Z,14.90
2022-10-25T21:05:53.088Z,14.80
2022-10-25T21:08:25.459Z,12.40
2022-10-25T21:10:59.985Z,16.80
2022-10-25T21:13:34.429Z,13.30
2022-10-25T21:16:11.039Z,15.10
2022-10-25T21:18:44.198Z,14.30
2022-10-25T21:21:20.656Z,14.20
2022-10-25T21:23:57.808Z,16.70
2022-10-25T21:26:29.945Z,14.40
2022-10-25T21:29:02.077Z,16.30
2022-10-25T21:31:34.256Z,15.60
2022-10-25T21:34:06.484Z,13.40
2022-10-25T21:36:38.753Z,14.90
2022-10-25T21:39:10.912Z,14.80
2022-10-25T21:41:43.069Z,16.20
2022-10-25T21:44:15.250Z,14.20
2022-10-25T21:46:48.003Z,15.90
2022-10-25T21:49:20.131Z,14.50
2022-10-25T21:51:52.414Z,13.40
2022-10-25T21:54:25.014Z,19.00
2022-10-25T21:56:57.666Z,15.80
2022-10-25T21:59:29.940Z,15.40
2022-10-25T22:02:03.073Z,17.70
2022-10-25T22:04:35.385Z,17.70
2022-10-25T22:07:07.591Z,14.80
2022-10-25T22:09:39.789Z,13.10
2022-10-25T22:12:12.250Z,15.00
2022-10-25T22:14:44.405Z,21.40
2022-10-25T22:17:17.648Z,47.30
2022-10-25T22:19:49.912Z,49.40
2022-10-25T22:22:22.215Z,16.50
2022-10-25T22:24:54.375Z,15.40
2022-10-25T22:27:26.690Z,16.80
2022-10-25T22:29:59.008Z,14.20
2022-10-25T22:32:31.272Z,15.10
2022-10-25T22:35:03.462Z,16.10
2022-10-25T22:37:35.659Z,16.00
2022-10-25T22:40:09.519Z,16.00
2022-10-25T22:42:41.703Z,16.50
2022-10-25T22:45:14.052Z,17.90
2022-10-25T22:47:46.525Z,15.50
2022-10-25T22:50:19.067Z,17.20
2022-10-25T22:52:51.260Z,17.60
2022-10-25T22:55:23.489Z,18.60
2022-10-25T22:57:56.090Z,18.10
2022-10-25T23:00:28.279Z,20.60
2022-10-25T23:03:00.560Z,20.80
2022-10-25T23:05:32.939Z,17.10
2022-10-25T23:08:05.267Z,18.90
2022-10-25T23:10:37.421Z,16.40
2022-10-25T23:13:09.548Z,15.90
2022-10-25T23:15:41.868Z,18.40
2022-10-25T23:18:14.016Z,18.60
2022-10-25T23:20:53.311Z,17.30
2022-10-25T23:23:26.615Z,18.70
2022-10-25T23:26:02.255Z,20.60
2022-10-25T23:31:10.562Z,17.90
2022-10-25T23:33:44.087Z,17.70
2022-10-25T23:36:17.924Z,18.60
2022-10-25T23:38:50.788Z,19.20
2022-10-25T23:41:23.953Z,17.40
2022-10-25T23:43:56.137Z,19.60
2022-10-25T23:46:28.500Z,20.30
2022-10-25T23:49:00.903Z,18.80
2022-10-25T23:51:33.076Z,18.10
2022-10-25T23:54:05.860Z,18.80
2022-10-25T23:56:38.531Z,22.40
2022-10-25T23:59:11.033Z,19.60
